Time;durP1;ratioP1;P1;durP2;ratioP2;P2;SDS_P1;SDS_P2;PMS_P1;PMS_P2;Temp;Humidity;BMP_temperature;BMP_pressure;BME280_temperature;BME280_humidity;BME280_pressure;Samples;Min_cycle;Max_cycle;Signal;HPM_P1;HPM_P2
2021/06/01 00:01:19;;;;;;;9.68;4.53;;;;;;;;;;5003129;28;20034;-71
2021/06/01 00:03:47;;;;;;;10.18;3.47;;;;;;;;;;5013723;28;20069;-71
2021/06/01 00:06:14;;;;;;;9.18;3.13;;;;;;;;;;5011232;28;20029;-71
2021/06/01 00:08:41;;;;;;;15.90;4.00;;;;;;;;;;5013735;28;20033;-71
2021/06/01 00:11:09;;;;;;;10.18;4.25;;;;;;;;;;5011339;28;20030;-71
2021/06/01 00:13:36;;;;;;;7.05;4.00;;;;;;;;;;5011489;28;20018;-71
2021/06/01 00:16:05;;;;;;;10.13;3.95;;;;;;;;;;5008715;28;20054;-71
2021/06/01 00:18:32;;;;;;;9.95;3.80;;;;;;;;;;5009969;28;20394;-71
2021/06/01 00:20:59;;;;;;;7.05;2.85;;;;;;;;;;5012412;28;20030;-71
2021/06/01 00:23:27;;;;;;;11.32;4.10;;;;;;;;;;5010480;28;20034;-71
2021/06/01 00:25:54;;;;;;;8.23;3.65;;;;;;;;;;5009480;28;20037;-70
2021/06/01 00:28:21;;;;;;;8.65;2.75;;;;;;;;;;5009220;28;20029;-71
2021/06/01 00:30:48;;;;;;;7.38;3.38;;;;;;;;;;5010689;28;20033;-71
2021/06/01 00:33:15;;;;;;;5.40;3.03;;;;;;;;;;5002134;28;20030;-71
2021/06/01 00:35:42;;;;;;;7.22;2.80;;;;;;;;;;5010707;28;20030;-71
2021/06/01 00:38:10;;;;;;;7.22;3.13;;;;;;;;;;5011666;28;20026;-71
2021/06/01 00:40:37;;;;;;;11.50;3.03;;;;;;;;;;5011427;28;20034;-71
2021/06/01 00:43:04;;;;;;;9.70;3.55;;;;;;;;;;5011091;28;20160;-71
2021/06/01 00:45:31;;;;;;;5.35;2.88;;;;;;;;;;5011548;28;20113;-71
2021/06/01 00:47:58;;;;;;;8.57;3.15;;;;;;;;;;5009434;28;20024;-72
2021/06/01 00:50:27;;;;;;;6.70;2.78;;;;;;;;;;5010785;28;20092;-71
2021/06/01 00:52:54;;;;;;;10.57;3.15;;;;;;;;;;5010103;28;20030;-71
2021/06/01 00:55:22;;;;;;;7.20;3.35;;;;;;;;;;5011138;28;20022;-71
2021/06/01 00:57:49;;;;;;;6.85;3.58;;;;;;;;;;5008046;28;20482;-71
2021/06/01 01:00:48;;;;;;;5.00;2.75;;;;;;;;;;5004380;28;20085;-71
2021/06/01 01:03:15;;;;;;;5.68;2.72;;;;;;;;;;4990444;28;20034;-71
2021/06/01 01:05:45;;;;;;;5.13;2.45;;;;;;;;;;4999193;28;20109;-71
2021/06/01 01:11:17;;;;;;;5.63;2.38;;;;;;;;;;5009206;28;20499;-71
2021/06/01 01:13:47;;;;;;;6.43;2.70;;;;;;;;;;4989105;28;20041;-71
2021/06/01 01:16:15;;;;;;;10.20;2.80;;;;;;;;;;4996494;28;20018;-71
2021/06/01 01:18:45;;;;;;;12.20;3.45;;;;;;;;;;5011970;28;20029;-71
2021/06/01 01:21:21;;;;;;;7.38;3.10;;;;;;;;;;5003603;28;20490;-71
2021/06/01 01:24:14;;;;;;;5.72;2.95;;;;;;;;;;5004251;28;20034;-71
2021/06/01 01:26:51;;;;;;;7.00;2.67;;;;;;;;;;5006974;28;20045;-71
2021/06/01 01:29:24;;;;;;;6.53;2.92;;;;;;;;;;5009274;28;20076;-71
2021/06/01 01:31:53;;;;;;;7.40;3.00;;;;;;;;;;5009519;28;20058;-71
2021/06/01 01:34:21;;;;;;;6.43;2.58;;;;;;;;;;5011253;28;20040;-71
2021/06/01 01:36:49;;;;;;;6.75;3.17;;;;;;;;;;5009103;28;20028;-71
2021/06/01 01:39:16;;;;;;;5.75;1.80;;;;;;;;;;5009736;28;20419;-71
2021/06/01 01:41:44;;;;;;;6.43;1.98;;;;;;;;;;5010150;28;20018;-71
2021/06/01 01:44:16;;;;;;;9.00;2.75;;;;;;;;;;5010476;28;20048;-71
2021/06/01 01:49:11;;;;;;;6.63;2.38;;;;;;;;;;5012053;28;20030;-71
2021/06/01 01:51:43;;;;;;;5.43;1.95;;;;;;;;;;5008927;28;20020;-71
2021/06/01 01:54:19;;;;;;;5.65;1.67;;;;;;;;;;5026629;28;20455;-71
2021/06/01 01:56:48;;;;;;;4.32;2.15;;;;;;;;;;5006393;28;20026;-71
2021/06/01 01:59:35;;;;;;;8.00;2.38;;;;;;;;;;5011735;28;20442;-71
2021/06/01 02:02:03;;;;;;;8.52;2.50;;;;;;;;;;5011578;28;20042;-71
2021/06/01 02:04:31;;;;;;;5.90;1.67;;;;;;;;;;5013137;28;20030;-71
2021/06/01 02:07:00;;;;;;;5.97;1.83;;;;;;;;;;5010974;28;20026;-71
2021/06/01 02:09:27;;;;;;;4.18;1.45;;;;;;;;;;5015658;28;20030;-71
2021/06/01 02:11:55;;;;;;;4.82;1.02;;;;;;;;;;5013576;28;20026;-71
2021/06/01 02:14:22;;;;;;;4.55;0.95;;;;;;;;;;5008764;28;20117;-72
2021/06/01 02:16:53;;;;;;;5.05;1.20;;;;;;;;;;5011205;28;20053;-71
2021/06/01 02:19:21;;;;;;;4.55;1.02;;;;;;;;;;5012561;28;20033;-71
2021/06/01 02:24:38;;;;;;;4.38;1.33;;;;;;;;;;5015446;28;20507;-71
2021/06/01 02:27:08;;;;;;;6.93;1.60;;;;;;;;;;5013028;28;20030;-72
2021/06/01 02:29:38;;;;;;;3.05;1.10;;;;;;;;;;5015065;28;20034;-71
2021/06/01 02:32:06;;;;;;;5.65;1.25;;;;;;;;;;5011732;28;20502;-71
2021/06/01 02:34:36;;;;;;;3.22;1.10;;;;;;;;;;5015192;28;20079;-72
2021/06/01 02:37:03;;;;;;;6.15;1.13;;;;;;;;;;5013886;28;20108;-71
2021/06/01 02:39:31;;;;;;;4.28;1.27;;;;;;;;;;5013611;28;20024;-71
2021/06/01 02:41:58;;;;;;;4.28;0.93;;;;;;;;;;5013050;28;20611;-71
2021/06/01 02:44:26;;;;;;;1.70;0.70;;;;;;;;;;5011437;28;20510;-72
2021/06/01 02:46:53;;;;;;;3.38;1.48;;;;;;;;;;5012361;28;20026;-72
2021/06/01 02:49:20;;;;;;;3.72;1.35;;;;;;;;;;5011434;28;20034;-72
2021/06/01 02:51:47;;;;;;;2.40;0.82;;;;;;;;;;5010701;28;20018;-72
2021/06/01 02:54:15;;;;;;;1.88;0.95;;;;;;;;;;5013987;28;20052;-71
2021/06/01 02:56:42;;;;;;;3.08;1.25;;;;;;;;;;5013206;28;20390;-71
2021/06/01 02:59:09;;;;;;;5.05;1.20;;;;;;;;;;5015034;28;20026;-71
2021/06/01 03:01:36;;;;;;;5.85;2.00;;;;;;;;;;5012740;28;20026;-71
2021/06/01 03:04:08;;;;;;;2.35;0.80;;;;;;;;;;5012033;28;20025;-71
2021/06/01 03:06:35;;;;;;;3.80;1.00;;;;;;;;;;5012572;28;20075;-71
2021/06/01 03:09:03;;;;;;;2.33;0.80;;;;;;;;;;5004418;28;20498;-71
2021/06/01 03:11:32;;;;;;;2.08;1.15;;;;;;;;;;5023677;28;20034;-70
2021/06/01 03:13:59;;;;;;;3.20;1.40;;;;;;;;;;5009421;28;20069;-71
2021/06/01 03:16:26;;;;;;;3.15;1.05;;;;;;;;;;5012334;28;20052;-71
2021/06/01 03:18:53;;;;;;;3.80;1.20;;;;;;;;;;5012285;28;20108;-71
2021/06/01 03:21:21;;;;;;;2.70;1.05;;;;;;;;;;5006201;28;20036;-71
2021/06/01 03:23:48;;;;;;;4.55;0.73;;;;;;;;;;5009923;28;20030;-71
2021/06/01 03:26:16;;;;;;;7.47;1.15;;;;;;;;;;5009893;28;20033;-71
2021/06/01 03:28:44;;;;;;;4.15;1.13;;;;;;;;;;5010623;28;20030;-70
2021/06/01 03:31:11;;;;;;;3.33;0.75;;;;;;;;;;5008918;28;20116;-70
2021/06/01 03:33:38;;;;;;;2.20;0.82;;;;;;;;;;5009840;28;20017;-70
2021/06/01 03:36:06;;;;;;;1.92;1.25;;;;;;;;;;5010593;28;20026;-69
2021/06/01 03:38:36;;;;;;;3.80;0.82;;;;;;;;;;5013789;28;20440;-69
2021/06/01 03:41:04;;;;;;;3.97;0.63;;;;;;;;;;5010570;28;20037;-69
2021/06/01 03:43:31;;;;;;;3.22;0.70;;;;;;;;;;5011960;28;20034;-70
2021/06/01 03:45:58;;;;;;;2.83;1.10;;;;;;;;;;5012053;28;20029;-68
2021/06/01 03:48:25;;;;;;;5.72;0.88;;;;;;;;;;5012651;28;20029;-69
2021/06/01 03:50:52;;;;;;;1.40;0.85;;;;;;;;;;5011709;28;20041;-69
2021/06/01 03:53:19;;;;;;;4.07;0.60;;;;;;;;;;5012591;28;20065;-70
2021/06/01 03:55:46;;;;;;;4.80;1.17;;;;;;;;;;5011676;28;20033;-70
2021/06/01 03:58:14;;;;;;;2.30;0.70;;;;;;;;;;5007542;28;20429;-70
2021/06/01 04:00:41;;;;;;;2.80;0.80;;;;;;;;;;5006935;28;20038;-70
2021/06/01 04:03:08;;;;;;;3.42;0.98;;;;;;;;;;5001325;28;20039;-70
2021/06/01 04:05:35;;;;;;;3.80;0.88;;;;;;;;;;5004063;28;20502;-70
2021/06/01 04:08:05;;;;;;;3.67;1.13;;;;;;;;;;5003171;28;20054;-70
2021/06/01 04:10:33;;;;;;;2.90;0.70;;;;;;;;;;5011782;28;20045;-70
2021/06/01 04:13:00;;;;;;;3.70;0.90;;;;;;;;;;5006042;28;20363;-70
2021/06/01 04:15:27;;;;;;;3.55;0.95;;;;;;;;;;5003553;28;20036;-69
2021/06/01 04:17:54;;;;;;;3.25;1.02;;;;;;;;;;5010856;28;20021;-69
2021/06/01 04:20:21;;;;;;;2.53;1.23;;;;;;;;;;5003345;28;20030;-69
2021/06/01 04:22:49;;;;;;;2.50;0.90;;;;;;;;;;5003443;28;20037;-69
2021/06/01 04:25:17;;;;;;;1.85;0.70;;;;;;;;;;5005375;28;20030;-68
2021/06/01 04:27:44;;;;;;;3.22;0.55;;;;;;;;;;5005359;28;20018;-69
2021/06/01 04:30:12;;;;;;;6.32;1.08;;;;;;;;;;5007330;28;20038;-69
2021/06/01 04:32:39;;;;;;;2.65;0.90;;;;;;;;;;5004560;28;20467;-69
2021/06/01 04:35:06;;;;;;;2.38;0.90;;;;;;;;;;5009242;28;20061;-70
2021/06/01 04:37:34;;;;;;;2.08;0.98;;;;;;;;;;5004705;28;20018;-69
2021/06/01 04:40:01;;;;;;;3.22;1.00;;;;;;;;;;5010118;28;20034;-68
2021/06/01 04:42:28;;;;;;;2.42;0.75;;;;;;;;;;5004296;28;20029;-67
2021/06/01 04:44:58;;;;;;;6.22;1.23;;;;;;;;;;5006060;28;20058;-68
2021/06/01 04:47:25;;;;;;;2.70;1.08;;;;;;;;;;5004221;28;20025;-68
2021/06/01 04:49:52;;;;;;;2.95;0.90;;;;;;;;;;5011114;28;20036;-68
2021/06/01 04:52:19;;;;;;;2.78;0.60;;;;;;;;;;5007923;28;20046;-68
2021/06/01 04:54:46;;;;;;;3.70;1.00;;;;;;;;;;5009495;28;20139;-69
2021/06/01 04:57:13;;;;;;;2.63;1.08;;;;;;;;;;5001422;28;20479;-69
2021/06/01 04:59:41;;;;;;;5.60;1.80;;;;;;;;;;5006343;28;20072;-69
2021/06/01 05:02:08;;;;;;;5.55;2.10;;;;;;;;;;5002672;28;20518;-67
2021/06/01 05:04:35;;;;;;;3.80;1.88;;;;;;;;;;5016716;28;20048;-68
2021/06/01 05:07:02;;;;;;;4.40;1.02;;;;;;;;;;5018266;28;20034;-68
2021/06/01 05:09:29;;;;;;;3.85;1.00;;;;;;;;;;5012299;28;20101;-69
2021/06/01 05:11:56;;;;;;;4.60;1.20;;;;;;;;;;5008646;28;20025;-68
2021/06/01 05:14:23;;;;;;;2.97;1.55;;;;;;;;;;5005429;28;20494;-69
2021/06/01 05:16:50;;;;;;;4.05;1.27;;;;;;;;;;5000781;28;20038;-69
2021/06/01 05:19:17;;;;;;;6.07;1.50;;;;;;;;;;5011086;28;20027;-69
2021/06/01 05:21:45;;;;;;;3.45;1.23;;;;;;;;;;5007766;28;20029;-69
2021/06/01 05:24:12;;;;;;;2.50;1.10;;;;;;;;;;5009099;28;20069;-68
2021/06/01 05:26:40;;;;;;;8.10;1.58;;;;;;;;;;5008411;28;20045;-68
2021/06/01 05:29:07;;;;;;;4.05;1.20;;;;;;;;;;5012088;28;20442;-68
2021/06/01 05:34:11;;;;;;;3.22;1.10;;;;;;;;;;5011577;28;20105;-68
2021/06/01 05:36:39;;;;;;;6.18;1.30;;;;;;;;;;5014011;28;20427;-68
2021/06/01 05:39:08;;;;;;;2.10;0.93;;;;;;;;;;5016296;28;20378;-68
2021/06/01 05:41:35;;;;;;;3.67;1.40;;;;;;;;;;5010612;28;20029;-69
2021/06/01 05:44:02;;;;;;;3.35;1.83;;;;;;;;;;5012987;28;20054;-69
2021/06/01 05:46:29;;;;;;;3.58;1.70;;;;;;;;;;5014077;28;20509;-69
2021/06/01 05:48:56;;;;;;;5.50;2.08;;;;;;;;;;5012727;28;20034;-69
2021/06/01 05:51:27;;;;;;;5.55;1.77;;;;;;;;;;5010872;28;20064;-69
2021/06/01 05:53:55;;;;;;;4.65;1.70;;;;;;;;;;5014205;28;20020;-69
2021/06/01 05:56:22;;;;;;;6.40;1.55;;;;;;;;;;5014032;28;20101;-68
2021/06/01 05:58:49;;;;;;;4.80;1.77;;;;;;;;;;5013168;28;20041;-68
2021/06/01 06:01:16;;;;;;;6.80;1.70;;;;;;;;;;5005389;28;20033;-68
2021/06/01 06:03:43;;;;;;;10.38;1.85;;;;;;;;;;5011958;28;20112;-69
2021/06/01 06:06:14;;;;;;;5.25;1.80;;;;;;;;;;5011784;28;20482;-69
2021/06/01 06:08:42;;;;;;;3.15;1.30;;;;;;;;;;5011443;28;20025;-68
2021/06/01 06:11:09;;;;;;;4.78;1.23;;;;;;;;;;5009890;28;20034;-68
2021/06/01 06:13:36;;;;;;;2.83;1.00;;;;;;;;;;5008468;28;20438;-67
2021/06/01 06:16:04;;;;;;;4.72;1.13;;;;;;;;;;5010190;28;20022;-68
2021/06/01 06:18:38;;;;;;;6.40;1.98;;;;;;;;;;5011282;28;20149;-68
2021/06/01 06:21:04;;;;;;;;;;;;;;;;;;5029374;28;20026;-68
2021/06/01 06:23:32;;;;;;;4.20;1.48;;;;;;;;;;5013845;28;19909;-68
2021/06/01 06:26:00;;;;;;;3.42;1.40;;;;;;;;;;5009780;28;20077;-68
2021/06/01 06:28:27;;;;;;;8.32;1.25;;;;;;;;;;5013731;28;20026;-68
2021/06/01 06:30:54;;;;;;;3.15;0.98;;;;;;;;;;5010008;28;20469;-69
2021/06/01 06:33:21;;;;;;;4.50;1.45;;;;;;;;;;5010824;28;20117;-68
2021/06/01 06:35:50;;;;;;;5.25;1.40;;;;;;;;;;5009910;28;20545;-69
2021/06/01 06:38:18;;;;;;;6.32;1.20;;;;;;;;;;5014284;28;20041;-68
2021/06/01 06:40:52;;;;;;;2.88;1.40;;;;;;;;;;5013065;28;20090;-68
2021/06/01 06:43:20;;;;;;;4.68;1.50;;;;;;;;;;5009417;28;20034;-67
2021/06/01 06:45:47;;;;;;;4.20;1.30;;;;;;;;;;5008778;28;20050;-68
2021/06/01 06:48:14;;;;;;;5.97;1.67;;;;;;;;;;5005204;28;20049;-68
2021/06/01 06:50:42;;;;;;;7.30;1.77;;;;;;;;;;5012492;28;20026;-68
2021/06/01 06:53:09;;;;;;;5.50;2.15;;;;;;;;;;5013063;28;20053;-68
2021/06/01 06:55:36;;;;;;;5.07;2.00;;;;;;;;;;5012546;28;20022;-68
2021/06/01 06:58:03;;;;;;;5.13;1.73;;;;;;;;;;5011999;28;20030;-68
2021/06/01 07:00:31;;;;;;;5.32;1.42;;;;;;;;;;5012887;28;20037;-68
2021/06/01 07:02:58;;;;;;;3.30;1.48;;;;;;;;;;5008788;28;20062;-68
2021/06/01 07:05:25;;;;;;;6.53;1.83;;;;;;;;;;5012715;28;20030;-68
2021/06/01 07:07:55;;;;;;;5.93;1.90;;;;;;;;;;5009578;28;20045;-67
2021/06/01 07:10:23;;;;;;;6.07;2.17;;;;;;;;;;5011916;28;20494;-68
2021/06/01 07:12:51;;;;;;;7.72;2.25;;;;;;;;;;5008290;28;20168;-68
2021/06/01 07:15:21;;;;;;;6.00;2.20;;;;;;;;;;5006457;28;20109;-68
2021/06/01 07:17:54;;;;;;;7.55;1.80;;;;;;;;;;5011798;28;20026;-68
2021/06/01 07:20:21;;;;;;;7.95;2.63;;;;;;;;;;5014302;28;20022;-68
2021/06/01 07:22:48;;;;;;;8.60;3.03;;;;;;;;;;5012980;28;20034;-68
2021/06/01 07:25:15;;;;;;;13.23;2.85;;;;;;;;;;5013911;28;20037;-68
2021/06/01 07:27:43;;;;;;;14.20;3.60;;;;;;;;;;5012526;28;20026;-68
2021/06/01 07:30:10;;;;;;;7.22;2.50;;;;;;;;;;5009417;28;20025;-68
2021/06/01 07:32:37;;;;;;;11.38;2.90;;;;;;;;;;5009235;28;20018;-69
2021/06/01 07:35:04;;;;;;;11.45;3.40;;;;;;;;;;5011893;28;20191;-69
2021/06/01 07:37:31;;;;;;;9.80;2.80;;;;;;;;;;5009189;28;20061;-69
2021/06/01 07:39:58;;;;;;;8.27;2.47;;;;;;;;;;4999669;28;20030;-68
2021/06/01 07:42:25;;;;;;;11.75;2.92;;;;;;;;;;5012985;28;20039;-68
2021/06/01 07:44:53;;;;;;;9.75;3.33;;;;;;;;;;5012917;28;20050;-68
2021/06/01 07:47:20;;;;;;;9.48;2.58;;;;;;;;;;5011225;28;20445;-68
2021/06/01 07:49:47;;;;;;;7.82;2.35;;;;;;;;;;5013118;28;20041;-68
2021/06/01 07:52:14;;;;;;;13.18;3.25;;;;;;;;;;5012688;28;20025;-68
2021/06/01 07:54:41;;;;;;;11.35;3.05;;;;;;;;;;5013546;28;20479;-68
2021/06/01 07:57:08;;;;;;;11.65;3.28;;;;;;;;;;5012808;28;20026;-68
2021/06/01 07:59:35;;;;;;;9.00;2.72;;;;;;;;;;5012556;28;20390;-68
2021/06/01 08:02:02;;;;;;;12.02;3.55;;;;;;;;;;5012796;28;20502;-68
2021/06/01 08:04:29;;;;;;;9.60;2.78;;;;;;;;;;5012357;28;20501;-68
2021/06/01 08:07:02;;;;;;;7.82;2.65;;;;;;;;;;5011590;28;20029;-68
2021/06/01 08:09:29;;;;;;;9.63;3.25;;;;;;;;;;5015696;28;20037;-68
2021/06/01 08:11:56;;;;;;;11.85;2.47;;;;;;;;;;5012616;28;20386;-68
2021/06/01 08:14:23;;;;;;;8.60;2.63;;;;;;;;;;5012491;28;20017;-68
2021/06/01 08:16:50;;;;;;;10.85;3.35;;;;;;;;;;5013131;28;20026;-68
2021/06/01 08:19:22;;;;;;;14.90;3.28;;;;;;;;;;5011637;28;20033;-71
2021/06/01 08:24:20;;;;;;;6.70;2.53;;;;;;;;;;5011028;28;20092;-72
2021/06/01 08:26:47;;;;;;;11.50;2.70;;;;;;;;;;5011249;28;20033;-72
2021/06/01 08:29:14;;;;;;;11.98;2.63;;;;;;;;;;5012175;28;20030;-70
2021/06/01 08:31:42;;;;;;;16.35;3.78;;;;;;;;;;5012715;28;20034;-72
2021/06/01 08:34:10;;;;;;;13.77;4.93;;;;;;;;;;5011405;28;20033;-73
2021/06/01 08:36:38;;;;;;;14.32;6.30;;;;;;;;;;5012423;28;20026;-73
2021/06/01 08:39:08;;;;;;;13.88;5.40;;;;;;;;;;5012412;28;20463;-71
2021/06/01 08:41:37;;;;;;;14.25;5.60;;;;;;;;;;5010286;28;20073;-73
2021/06/01 08:44:05;;;;;;;11.23;3.90;;;;;;;;;;5011349;28;20064;-73
2021/06/01 08:46:33;;;;;;;10.77;2.85;;;;;;;;;;5011486;28;20076;-72
2021/06/01 08:49:00;;;;;;;15.95;4.40;;;;;;;;;;5011190;28;20437;-72
2021/06/01 08:51:28;;;;;;;11.77;3.72;;;;;;;;;;5012333;28;20026;-72
2021/06/01 08:53:59;;;;;;;8.70;3.65;;;;;;;;;;5012600;28;20037;-73
2021/06/01 08:56:27;;;;;;;12.40;4.03;;;;;;;;;;5011731;28;20022;-74
2021/06/01 08:58:54;;;;;;;11.57;3.40;;;;;;;;;;5010330;28;20112;-73
2021/06/01 09:01:22;;;;;;;9.25;3.55;;;;;;;;;;5010432;28;20491;-73
2021/06/01 09:03:55;;;;;;;9.80;3.95;;;;;;;;;;5008427;28;20079;-73
2021/06/01 09:06:33;;;;;;;13.63;4.93;;;;;;;;;;5010918;28;20048;-73
2021/06/01 09:23:01;;;;;;;11.18;4.72;;;;;;;;;;5011075;28;20395;-72
2021/06/01 09:25:36;;;;;;;10.10;4.05;;;;;;;;;;5011251;28;20014;-73
2021/06/01 09:28:05;;;;;;;10.40;4.60;;;;;;;;;;5009194;28;20036;-72
2021/06/01 09:30:32;;;;;;;10.48;4.63;;;;;;;;;;5010194;28;20509;-73
2021/06/01 09:33:02;;;;;;;11.15;5.45;;;;;;;;;;5011001;28;20026;-73
2021/06/01 09:35:45;;;;;;;11.07;4.13;;;;;;;;;;5010636;28;20026;-73
2021/06/01 09:38:12;;;;;;;10.40;4.93;;;;;;;;;;4995095;28;20116;-68
2021/06/01 09:40:40;;;;;;;7.32;4.00;;;;;;;;;;5010411;28;20072;-69
2021/06/01 09:43:08;;;;;;;11.88;4.18;;;;;;;;;;5009065;28;20050;-69
2021/06/01 09:45:35;;;;;;;9.90;4.03;;;;;;;;;;5011606;28;20103;-69
2021/06/01 09:48:07;;;;;;;8.88;4.72;;;;;;;;;;5010872;28;20173;-69
2021/06/01 09:50:51;;;;;;;8.02;4.25;;;;;;;;;;5009806;28;20368;-68
2021/06/01 09:53:25;;;;;;;14.93;5.68;;;;;;;;;;5010393;28;20457;-68
2021/06/01 09:55:52;;;;;;;14.38;6.47;;;;;;;;;;5011869;28;20487;-68
2021/06/01 09:58:27;;;;;;;11.88;6.38;;;;;;;;;;5006101;28;20026;-68
2021/06/01 10:00:55;;;;;;;17.23;5.82;;;;;;;;;;5009752;28;20048;-68
2021/06/01 10:03:45;;;;;;;12.35;5.95;;;;;;;;;;5010667;28;20029;-68
2021/06/01 10:06:10;;;;;;;12.43;5.65;;;;;;;;;;5010975;28;20161;-68
2021/06/01 10:09:04;;;;;;;14.23;6.03;;;;;;;;;;5010793;28;20026;-68
2021/06/01 10:11:31;;;;;;;14.35;5.60;;;;;;;;;;5008971;28;20221;-68
2021/06/01 10:13:59;;;;;;;13.40;6.60;;;;;;;;;;5011201;28;20057;-69
2021/06/01 10:16:28;;;;;;;11.50;5.93;;;;;;;;;;5011434;28;20033;-69
2021/06/01 10:18:55;;;;;;;12.55;6.00;;;;;;;;;;5010310;28;20034;-68
2021/06/01 10:21:24;;;;;;;13.95;6.00;;;;;;;;;;5006885;28;20026;-68
2021/06/01 10:23:53;;;;;;;12.18;5.63;;;;;;;;;;5013378;28;20088;-68
2021/06/01 10:26:23;;;;;;;11.77;5.57;;;;;;;;;;5014438;28;20049;-68
2021/06/01 10:28:50;;;;;;;15.45;6.35;;;;;;;;;;5012450;28;20557;-69
2021/06/01 10:31:19;;;;;;;12.98;5.55;;;;;;;;;;5015190;28;20054;-69
2021/06/01 10:33:48;;;;;;;11.93;5.35;;;;;;;;;;5011773;28;20045;-68
2021/06/01 10:50:41;;;;;;;8.43;5.13;;;;;;;;;;5004669;28;20088;-69
2021/06/01 10:56:02;;;;;;;11.85;6.22;;;;;;;;;;5014565;28;20034;-69
2021/06/01 10:58:41;;;;;;;9.90;5.40;;;;;;;;;;5014014;28;20022;-69
2021/06/01 11:04:06;;;;;;;13.77;6.13;;;;;;;;;;5014423;28;20189;-69
2021/06/01 11:06:33;;;;;;;;;;;;;;;;;;5014263;28;20030;-69
2021/06/01 11:09:00;;;;;;;14.18;6.63;;;;;;;;;;5013626;28;19914;-69
2021/06/01 11:11:28;;;;;;;11.25;6.82;;;;;;;;;;5013505;28;20022;-69
2021/06/01 11:13:56;;;;;;;12.70;6.53;;;;;;;;;;5013367;28;20026;-69
2021/06/01 11:16:23;;;;;;;9.55;6.10;;;;;;;;;;5009236;28;20038;-69
2021/06/01 11:19:00;;;;;;;14.40;6.57;;;;;;;;;;5013428;28;20041;-69
2021/06/01 11:21:35;;;;;;;14.70;6.97;;;;;;;;;;5012834;28;20053;-69
2021/06/01 11:25:04;;;;;;;9.70;6.45;;;;;;;;;;5014302;28;20073;-69
2021/06/01 11:35:15;;;;;;;12.95;7.05;;;;;;;;;;5008990;28;20056;-69
2021/06/01 11:37:59;;;;;;;12.18;6.30;;;;;;;;;;5013006;28;20047;-69
2021/06/01 11:43:09;;;;;;;14.80;6.78;;;;;;;;;;5012101;28;20438;-68
2021/06/01 11:45:46;;;;;;;16.80;7.78;;;;;;;;;;5010100;28;20040;-69
2021/06/01 11:50:59;;;;;;;12.57;7.75;;;;;;;;;;5013748;28;20109;-69
2021/06/01 11:53:26;;;;;;;18.15;7.97;;;;;;;;;;5012245;28;20029;-69
2021/06/01 11:56:01;;;;;;;13.75;8.20;;;;;;;;;;5013697;28;20018;-68
2021/06/01 12:04:05;;;;;;;21.45;6.93;;;;;;;;;;5011713;28;20044;-69
2021/06/01 12:12:41;;;;;;;15.05;7.47;;;;;;;;;;5010801;28;20053;-69
2021/06/01 12:18:03;;;;;;;12.73;7.13;;;;;;;;;;5010831;28;20041;-69
2021/06/01 12:20:30;;;;;;;18.25;9.13;;;;;;;;;;5011921;28;20030;-69
2021/06/01 12:22:57;;;;;;;13.98;6.70;;;;;;;;;;5009322;28;20137;-69
2021/06/01 12:25:24;;;;;;;14.02;7.82;;;;;;;;;;5012046;28;20129;-69
2021/06/01 12:30:53;;;;;;;18.85;7.30;;;;;;;;;;5007091;28;20093;-73
2021/06/01 12:31:00;;;;;;;14.35;7.25;;;;;;;;;;5005995;28;20037;-73
2021/06/01 12:33:27;;;;;;;11.68;6.30;;;;;;;;;;5006511;28;20483;-73
2021/06/01 12:41:48;;;;;;;14.65;7.05;;;;;;;;;;5007714;28;20083;-73
2021/06/01 12:44:16;;;;;;;16.50;8.23;;;;;;;;;;5008974;28;20172;-73
2021/06/01 12:47:10;;;;;;;16.13;8.02;;;;;;;;;;5006164;28;20367;-74
2021/06/01 13:19:15;;;;;;;17.23;9.00;;;;;;;;;;5010502;28;20037;-73
2021/06/01 13:20:45;;;;;;;17.48;8.75;;;;;;;;;;5012096;28;20048;-72
2021/06/01 13:32:14;;;;;;;22.52;9.20;;;;;;;;;;5007908;28;20084;-73
2021/06/01 13:40:36;;;;;;;19.90;8.98;;;;;;;;;;5010695;28;20430;-74
2021/06/01 13:56:28;;;;;;;18.02;10.07;;;;;;;;;;5010762;28;20037;-73
2021/06/01 13:59:10;;;;;;;16.77;9.48;;;;;;;;;;5013038;28;20026;-73
2021/06/01 14:10:04;;;;;;;21.13;11.27;;;;;;;;;;5014903;28;20084;-73
2021/06/01 14:31:42;;;;;;;21.63;10.80;;;;;;;;;;5008688;28;20513;-73
2021/06/01 14:40:17;;;;;;;20.27;11.55;;;;;;;;;;5013367;28;20088;-73
2021/06/01 15:07:49;;;;;;;21.42;12.27;;;;;;;;;;5010931;28;20566;-73
2021/06/01 16:13:42;;;;;;;19.58;12.30;;;;;;;;;;5011057;28;20403;-73
2021/06/01 16:29:44;;;;;;;22.15;12.48;;;;;;;;;;5010518;28;20088;-73
2021/06/01 17:05:08;;;;;;;17.05;11.98;;;;;;;;;;5012621;28;20036;-73
2021/06/01 17:08:18;;;;;;;18.35;12.73;;;;;;;;;;5010523;28;20025;-73
2021/06/01 17:13:17;;;;;;;19.33;12.85;;;;;;;;;;5005996;28;20563;-73
2021/06/01 17:15:45;;;;;;;18.88;13.07;;;;;;;;;;5005725;28;20030;-73
2021/06/01 17:18:21;;;;;;;17.30;12.40;;;;;;;;;;5011012;28;20018;-73
2021/06/01 17:36:58;;;;;;;17.77;11.20;;;;;;;;;;5007594;28;20033;-73
2021/06/01 17:39:26;;;;;;;15.05;10.80;;;;;;;;;;5010851;28;20033;-73
2021/06/01 17:41:54;;;;;;;16.00;9.57;;;;;;;;;;5009128;28;20022;-73
2021/06/01 17:44:24;;;;;;;14.80;10.13;;;;;;;;;;5011788;28;20410;-73
2021/06/01 17:46:52;;;;;;;17.23;9.95;;;;;;;;;;5009071;28;20133;-73
2021/06/01 17:49:22;;;;;;;12.80;9.18;;;;;;;;;;5011529;28;20029;-73
2021/06/01 17:51:52;;;;;;;15.68;9.23;;;;;;;;;;5010820;28;20030;-73
2021/06/01 17:54:35;;;;;;;14.13;9.82;;;;;;;;;;5010196;28;20029;-73
2021/06/01 17:57:04;;;;;;;23.38;11.25;;;;;;;;;;5008610;28;20022;-73
2021/06/01 17:59:31;;;;;;;13.85;10.43;;;;;;;;;;5011424;28;20057;-73
2021/06/01 18:01:58;;;;;;;13.38;10.52;;;;;;;;;;5010129;28;20037;-73
2021/06/01 18:04:26;;;;;;;16.23;10.52;;;;;;;;;;5008646;28;20069;-73
2021/06/01 18:06:57;;;;;;;17.13;10.68;;;;;;;;;;4999788;28;20023;-73
2021/06/01 18:10:03;;;;;;;16.30;9.82;;;;;;;;;;4992512;28;20022;-73
2021/06/01 18:37:23;;;;;;;14.73;10.27;;;;;;;;;;5009211;28;20095;-73
2021/06/01 18:43:00;;;;;;;16.73;10.05;;;;;;;;;;5009867;28;20040;-72
2021/06/01 19:02:14;;;;;;;15.48;9.32;;;;;;;;;;5004794;28;20029;-72
2021/06/01 19:22:35;;;;;;;15.60;8.30;;;;;;;;;;5012405;28;20076;-72
2021/06/01 19:27:25;;;;;;;14.10;9.35;;;;;;;;;;5010450;28;20034;-72
2021/06/01 19:51:54;;;;;;;21.15;7.45;;;;;;;;;;5011758;28;20044;-72
2021/06/01 19:54:22;;;;;;;13.23;7.43;;;;;;;;;;5008730;28;20022;-72
2021/06/01 19:56:50;;;;;;;19.88;6.85;;;;;;;;;;5008137;28;20026;-72
2021/06/01 19:59:17;;;;;;;18.98;6.68;;;;;;;;;;5013766;28;20495;-72
2021/06/01 20:01:44;;;;;;;15.73;7.63;;;;;;;;;;5012029;28;20026;-72
2021/06/01 20:04:12;;;;;;;11.52;5.88;;;;;;;;;;5009470;28;20482;-72
2021/06/01 20:06:40;;;;;;;10.65;6.00;;;;;;;;;;5000244;28;20084;-72
2021/06/01 20:09:07;;;;;;;17.60;6.93;;;;;;;;;;5012658;28;20057;-72
2021/06/01 20:11:34;;;;;;;14.90;6.25;;;;;;;;;;5011434;28;20391;-73
2021/06/01 20:14:02;;;;;;;19.17;6.82;;;;;;;;;;5010404;28;20065;-73
2021/06/01 20:16:30;;;;;;;14.30;5.63;;;;;;;;;;5010477;28;20032;-73
2021/06/01 20:19:00;;;;;;;18.17;6.20;;;;;;;;;;5006925;28;20034;-72
2021/06/01 20:21:27;;;;;;;16.75;6.28;;;;;;;;;;5007807;28;20028;-72
2021/06/01 20:24:04;;;;;;;13.63;5.47;;;;;;;;;;5011189;28;20058;-72
2021/06/01 20:26:32;;;;;;;13.88;5.50;;;;;;;;;;5007615;28;20030;-72
2021/06/01 20:29:05;;;;;;;17.60;6.75;;;;;;;;;;5010957;28;20037;-71
2021/06/01 20:31:35;;;;;;;9.35;5.25;;;;;;;;;;5009841;28;20018;-73
2021/06/01 20:34:03;;;;;;;10.35;4.45;;;;;;;;;;5011887;28;20018;-73
2021/06/01 20:36:30;;;;;;;10.15;5.25;;;;;;;;;;5010508;28;20105;-73
2021/06/01 20:39:00;;;;;;;10.10;4.70;;;;;;;;;;5010732;28;20487;-71
2021/06/01 20:41:32;;;;;;;11.45;4.82;;;;;;;;;;5010737;28;20045;-74
2021/06/01 20:43:59;;;;;;;9.35;4.53;;;;;;;;;;5008998;28;20050;-74
2021/06/01 20:46:27;;;;;;;9.93;4.20;;;;;;;;;;4999929;28;20073;-71
2021/06/01 20:48:57;;;;;;;7.30;4.72;;;;;;;;;;5008049;28;20536;-71
2021/06/01 20:51:25;;;;;;;9.55;3.70;;;;;;;;;;5009326;28;20030;-71
2021/06/01 20:53:54;;;;;;;7.22;3.63;;;;;;;;;;5006516;28;20018;-72
2021/06/01 20:56:25;;;;;;;6.68;3.58;;;;;;;;;;5009525;28;20026;-72
2021/06/01 20:58:53;;;;;;;7.30;3.60;;;;;;;;;;5011430;28;20022;-72
2021/06/01 21:01:20;;;;;;;7.13;3.38;;;;;;;;;;5008341;28;20029;-72
2021/06/01 21:03:48;;;;;;;7.38;3.33;;;;;;;;;;5008806;28;20018;-72
2021/06/01 21:06:15;;;;;;;8.18;4.00;;;;;;;;;;5009554;28;20017;-72
2021/06/01 21:08:42;;;;;;;9.73;4.13;;;;;;;;;;5006750;28;20084;-72
2021/06/01 21:11:11;;;;;;;11.63;4.18;;;;;;;;;;5009162;28;20029;-72
2021/06/01 21:13:44;;;;;;;12.23;4.03;;;;;;;;;;5010391;28;20022;-71
2021/06/01 21:16:12;;;;;;;6.57;4.00;;;;;;;;;;5010016;28;20486;-72
2021/06/01 21:18:39;;;;;;;8.82;3.92;;;;;;;;;;5011672;28;20052;-72
2021/06/01 21:21:08;;;;;;;12.30;3.97;;;;;;;;;;5007587;28;20030;-73
2021/06/01 21:23:35;;;;;;;11.73;4.20;;;;;;;;;;5008217;28;20122;-73
2021/06/01 21:26:02;;;;;;;13.73;3.65;;;;;;;;;;5009797;28;20076;-73
2021/06/01 21:28:31;;;;;;;14.85;4.70;;;;;;;;;;5011327;28;20050;-73
2021/06/01 21:30:59;;;;;;;12.90;3.97;;;;;;;;;;5010049;28;20569;-73
2021/06/01 21:33:34;;;;;;;7.28;4.55;;;;;;;;;;5010754;28;20022;-73
2021/06/01 21:36:04;;;;;;;12.13;4.07;;;;;;;;;;4999934;28;20021;-73
2021/06/01 21:38:37;;;;;;;9.23;4.18;;;;;;;;;;5011309;28;20037;-73
2021/06/01 21:41:04;;;;;;;11.63;4.45;;;;;;;;;;5009613;28;20026;-72
2021/06/01 21:43:32;;;;;;;8.07;4.95;;;;;;;;;;5008406;28;20121;-72